createdAt,value
2017-08-17T00:01:16.272Z,20.50
2017-08-17T00:03:43.162Z,20.50
2017-08-17T00:06:09.343Z,20.50
2017-08-17T00:08:36.246Z,20.50
2017-08-17T00:11:02.471Z,20.50
2017-08-17T00:13:28.654Z,20.50
2017-08-17T00:15:54.788Z,20.50
2017-08-17T00:18:20.950Z,20.50
2017-08-17T00:20:47.126Z,20.40
2017-08-17T00:23:14.046Z,20.40
2017-08-17T00:25:40.233Z,20.40
2017-08-17T00:28:06.403Z,20.40
2017-08-17T00:30:33.357Z,20.30
2017-08-17T00:32:59.543Z,20.30
2017-08-17T00:35:25.774Z,20.20
2017-08-17T00:37:51.969Z,20.10
2017-08-17T00:40:18.149Z,20.10
2017-08-17T00:42:44.338Z,20.10
2017-08-17T00:45:10.537Z,20.00
2017-08-17T00:47:37.451Z,19.90
2017-08-17T00:50:03.618Z,19.90
2017-08-17T00:52:29.830Z,19.90
2017-08-17T00:54:56.048Z,19.90
2017-08-17T00:57:22.255Z,19.90
2017-08-17T00:59:48.482Z,19.90
2017-08-17T01:02:14.663Z,19.90
2017-08-17T01:04:41.583Z,19.90
2017-08-17T01:07:07.814Z,19.90
2017-08-17T01:09:34.006Z,19.90
2017-08-17T01:12:00.210Z,19.80
2017-08-17T01:14:26.414Z,19.80
2017-08-17T01:16:53.354Z,19.70
2017-08-17T01:19:20.323Z,19.70
2017-08-17T01:21:46.512Z,19.70
2017-08-17T01:31:52.283Z,19.70
2017-08-17T01:34:18.551Z,19.70
2017-08-17T01:36:44.743Z,19.50
2017-08-17T01:39:10.943Z,19.40
2017-08-17T01:41:37.576Z,19.50
2017-08-17T01:44:04.506Z,19.50
2017-08-17T01:46:30.718Z,19.50
2017-08-17T01:48:56.954Z,19.50
2017-08-17T01:51:23.159Z,19.60
2017-08-17T01:53:49.353Z,20.00
2017-08-17T01:56:15.553Z,19.60
2017-08-17T01:58:42.482Z,19.50
2017-08-17T02:01:08.683Z,19.50
2017-08-17T02:03:34.927Z,19.50
2017-08-17T02:06:01.171Z,19.60
2017-08-17T02:08:28.082Z,19.50
2017-08-17T02:10:54.297Z,19.50
2017-08-17T02:13:20.478Z,19.50
2017-08-17T02:15:47.422Z,19.40
2017-08-17T02:18:13.586Z,19.40
2017-08-17T02:20:39.769Z,19.30
2017-08-17T02:23:05.932Z,19.30
2017-08-17T02:25:32.189Z,19.30
2017-08-17T02:27:59.097Z,19.20
2017-08-17T02:30:27.663Z,19.20
2017-08-17T02:32:53.858Z,19.10
2017-08-17T02:35:20.021Z,19.10
2017-08-17T02:37:46.215Z,19.20
2017-08-17T02:40:12.412Z,19.20
2017-08-17T02:42:38.643Z,19.20
2017-08-17T02:45:04.846Z,19.20
2017-08-17T02:47:31.755Z,19.30
2017-08-17T02:49:57.945Z,19.30
2017-08-17T02:52:24.135Z,19.30
2017-08-17T02:54:50.288Z,19.40
2017-08-17T02:57:16.470Z,19.30
2017-08-17T02:59:42.635Z,19.40
2017-08-17T03:02:09.553Z,19.30
2017-08-17T03:04:35.693Z,19.40
2017-08-17T03:07:01.858Z,19.10
2017-08-17T03:09:28.013Z,19.10
2017-08-17T03:11:54.182Z,18.90
2017-08-17T03:14:21.101Z,18.80
2017-08-17T03:16:47.267Z,18.80
2017-08-17T03:19:14.182Z,18.80
2017-08-17T03:21:40.366Z,18.70
2017-08-17T03:24:06.531Z,18.70
2017-08-17T03:26:32.686Z,18.70
2017-08-17T03:28:58.845Z,18.70
2017-08-17T03:31:24.990Z,18.70
2017-08-17T03:33:51.141Z,18.70
2017-08-17T03:36:17.312Z,18.70
2017-08-17T03:38:43.609Z,18.80
2017-08-17T03:41:09.780Z,18.70
2017-08-17T03:43:35.963Z,18.80
2017-08-17T03:46:02.519Z,18.70
2017-08-17T03:48:29.429Z,18.80
2017-08-17T03:50:55.601Z,18.80
2017-08-17T03:53:22.496Z,18.80
2017-08-17T03:55:48.662Z,18.80
2017-08-17T03:58:15.573Z,19.00
2017-08-17T04:00:42.045Z,18.90
2017-08-17T04:03:08.932Z,19.00
2017-08-17T04:05:35.147Z,18.90
2017-08-17T04:08:01.342Z,18.90
2017-08-17T04:10:28.215Z,18.90
2017-08-17T04:12:54.372Z,18.90
2017-08-17T04:15:20.543Z,18.90
2017-08-17T04:17:47.479Z,18.90
2017-08-17T04:20:13.664Z,18.80
2017-08-17T04:22:39.802Z,18.70
2017-08-17T04:25:05.995Z,18.70
2017-08-17T04:27:32.728Z,18.70
2017-08-17T04:29:58.886Z,18.70
2017-08-17T04:32:25.040Z,18.70
2017-08-17T04:34:51.215Z,18.70
2017-08-17T04:37:17.382Z,18.70
2017-08-17T04:39:43.562Z,18.70
2017-08-17T04:42:09.726Z,18.70
2017-08-17T04:44:36.579Z,18.70
2017-08-17T04:47:02.761Z,18.80
2017-08-17T04:49:28.939Z,18.80
2017-08-17T04:51:55.151Z,18.90
2017-08-17T04:54:21.330Z,18.90
2017-08-17T04:57:15.297Z,19.10
2017-08-17T04:59:41.475Z,19.20
2017-08-17T05:02:07.638Z,19.30
2017-08-17T05:04:33.795Z,19.20
2017-08-17T05:07:00.735Z,19.20
2017-08-17T05:09:27.674Z,19.10
2017-08-17T05:11:54.882Z,18.90
2017-08-17T05:14:22.361Z,19.50
2017-08-17T05:16:52.215Z,18.90
2017-08-17T05:19:19.113Z,19.00
2017-08-17T05:21:45.307Z,19.00
2017-08-17T05:24:11.487Z,19.20
2017-08-17T05:26:37.627Z,19.30
2017-08-17T05:29:03.790Z,19.40
2017-08-17T05:31:29.952Z,19.50
2017-08-17T05:33:56.182Z,19.60
2017-08-17T05:36:23.240Z,19.60
2017-08-17T05:38:49.394Z,19.40
2017-08-17T05:41:16.392Z,19.70
2017-08-17T05:43:42.585Z,19.80
2017-08-17T05:46:09.482Z,19.90
2017-08-17T05:48:36.414Z,20.00
2017-08-17T05:51:02.971Z,20.30
2017-08-17T05:53:29.122Z,20.60
2017-08-17T05:55:55.285Z,20.60
2017-08-17T05:58:21.475Z,20.80
2017-08-17T06:00:47.654Z,21.10
2017-08-17T06:03:13.826Z,21.50
2017-08-17T06:05:40.008Z,21.80
2017-08-17T06:08:06.209Z,21.80
2017-08-17T06:10:33.133Z,21.90
2017-08-17T06:12:59.261Z,21.90
2017-08-17T06:15:26.327Z,22.10
2017-08-17T06:17:53.275Z,22.60
2017-08-17T06:20:20.217Z,22.80
2017-08-17T06:22:47.162Z,23.10
2017-08-17T06:25:14.041Z,23.30
2017-08-17T06:27:40.227Z,23.40
2017-08-17T06:30:07.164Z,23.20
2017-08-17T06:32:34.491Z,23.20
2017-08-17T06:35:01.475Z,23.40
2017-08-17T06:37:28.362Z,23.20
2017-08-17T06:39:54.562Z,23.20
2017-08-17T06:42:35.659Z,23.20
2017-08-17T06:45:01.901Z,22.90
2017-08-17T06:47:28.095Z,22.80
2017-08-17T06:49:55.019Z,22.40
2017-08-17T06:52:21.189Z,22.40
2017-08-17T06:54:47.388Z,22.80
2017-08-17T06:57:14.344Z,23.10
2017-08-17T06:59:40.493Z,23.00
2017-08-17T07:02:06.666Z,23.40
2017-08-17T07:04:32.845Z,23.80
2017-08-17T07:06:59.111Z,24.00
2017-08-17T07:09:25.306Z,24.20
2017-08-17T07:11:51.478Z,24.50
2017-08-17T07:14:17.688Z,24.80
2017-08-17T07:16:43.882Z,24.90
2017-08-17T07:19:10.050Z,24.90
2017-08-17T07:21:36.208Z,24.80
2017-08-17T07:24:03.197Z,25.00
2017-08-17T07:26:29.341Z,25.00
2017-08-17T07:28:55.542Z,25.00
2017-08-17T07:31:21.795Z,24.90
2017-08-17T07:33:48.103Z,24.80
2017-08-17T07:36:14.312Z,25.30
2017-08-17T07:38:41.213Z,25.80
2017-08-17T07:41:07.392Z,26.20
2017-08-17T07:43:33.584Z,26.30
2017-08-17T07:45:59.730Z,26.30
2017-08-17T07:48:26.649Z,26.50
2017-08-17T07:50:52.845Z,26.50
2017-08-17T07:53:19.014Z,26.10
2017-08-17T07:55:45.196Z,26.10
2017-08-17T07:58:12.401Z,26.40
2017-08-17T08:00:38.572Z,26.50
2017-08-17T08:03:04.771Z,26.20
2017-08-17T08:05:30.978Z,26.00
2017-08-17T08:07:57.161Z,25.90
2017-08-17T08:10:23.317Z,25.80
2017-08-17T08:12:49.467Z,25.50
2017-08-17T08:15:15.666Z,25.40
2017-08-17T08:17:41.843Z,25.20
2017-08-17T08:20:08.818Z,24.90
2017-08-17T08:22:35.045Z,24.90
2017-08-17T08:25:01.218Z,25.60
2017-08-17T08:27:27.373Z,25.60
2017-08-17T08:29:53.574Z,26.40
2017-08-17T08:32:19.828Z,26.50
2017-08-17T08:34:46.027Z,26.40
2017-08-17T08:37:12.151Z,26.00
2017-08-17T08:39:38.362Z,25.40
2017-08-17T08:42:04.604Z,25.10
2017-08-17T08:44:30.766Z,24.80
2017-08-17T08:46:57.679Z,24.60
2017-08-17T08:49:23.843Z,24.60
2017-08-17T08:51:50.727Z,24.50
2017-08-17T08:54:16.903Z,24.50
2017-08-17T08:56:43.818Z,24.60
2017-08-17T08:59:09.967Z,24.60
2017-08-17T09:01:36.182Z,24.60
2017-08-17T09:04:02.403Z,24.80
2017-08-17T09:06:28.571Z,25.60
2017-08-17T09:08:55.511Z,24.80
2017-08-17T09:11:22.399Z,24.80
2017-08-17T09:13:48.607Z,24.70
2017-08-17T09:16:14.818Z,24.70
2017-08-17T09:18:41.732Z,24.90
2017-08-17T09:21:07.958Z,24.90
2017-08-17T09:23:34.123Z,25.20
2017-08-17T09:26:00.304Z,25.60
2017-08-17T09:28:26.562Z,25.80
2017-08-17T09:30:52.733Z,25.90
2017-08-17T09:33:18.928Z,26.00
2017-08-17T09:35:45.820Z,26.40
2017-08-17T09:38:11.998Z,26.40
2017-08-17T09:40:38.939Z,27.00
2017-08-17T09:43:05.886Z,27.20
2017-08-17T09:45:32.430Z,27.20
2017-08-17T09:47:59.317Z,26.90
2017-08-17T09:50:25.526Z,26.90
2017-08-17T09:52:51.662Z,26.90
2017-08-17T09:55:17.852Z,27.10
2017-08-17T09:57:44.024Z,27.20
2017-08-17T10:00:10.224Z,27.10
2017-08-17T10:02:36.443Z,27.30
2017-08-17T10:05:03.386Z,27.80
2017-08-17T10:07:29.550Z,28.10
2017-08-17T10:09:55.723Z,28.10
2017-08-17T10:12:21.862Z,28.40
2017-08-17T10:14:48.082Z,28.60
2017-08-17T10:17:14.281Z,28.60
2017-08-17T10:19:40.471Z,28.80
2017-08-17T10:22:09.444Z,28.10
2017-08-17T10:24:36.511Z,27.90
2017-08-17T10:27:02.676Z,27.80
2017-08-17T10:29:28.830Z,27.80
2017-08-17T10:31:55.002Z,27.60
2017-08-17T10:34:21.171Z,27.50
2017-08-17T10:36:47.382Z,27.40
2017-08-17T10:39:13.530Z,27.50
2017-08-17T10:41:39.716Z,27.70
2017-08-17T10:44:06.720Z,27.90
2017-08-17T10:46:32.903Z,28.10
2017-08-17T10:48:59.094Z,28.30
2017-08-17T10:51:26.014Z,27.90
2017-08-17T10:53:52.199Z,27.90
2017-08-17T10:56:18.359Z,27.80
2017-08-17T10:58:44.539Z,27.80
2017-08-17T11:01:11.582Z,27.90
2017-08-17T11:03:38.500Z,28.60
2017-08-17T11:06:04.670Z,28.60
2017-08-17T11:08:30.854Z,28.60
2017-08-17T11:10:57.070Z,28.60
2017-08-17T11:13:24.230Z,28.50
2017-08-17T11:15:50.407Z,28.60
2017-08-17T11:18:16.642Z,29.00
2017-08-17T11:20:42.802Z,29.20
2017-08-17T11:23:08.961Z,29.30
2017-08-17T11:25:35.131Z,29.10
2017-08-17T11:28:01.323Z,29.30
2017-08-17T11:30:28.244Z,30.40
2017-08-17T11:32:55.180Z,30.30
2017-08-17T11:35:21.349Z,30.30
2017-08-17T11:37:48.299Z,29.70
2017-08-17T11:40:14.500Z,30.00
2017-08-17T11:42:41.422Z,30.40
2017-08-17T11:45:07.603Z,30.50
2017-08-17T11:47:33.743Z,30.20
2017-08-17T11:49:59.938Z,29.60
2017-08-17T11:52:26.870Z,29.30
2017-08-17T11:54:53.064Z,29.30
2017-08-17T11:57:19.222Z,29.30
2017-08-17T11:59:45.402Z,29.60
2017-08-17T12:02:11.718Z,29.30
2017-08-17T12:04:38.675Z,29.00
2017-08-17T12:07:04.859Z,29.00
2017-08-17T12:09:31.813Z,29.70
2017-08-17T12:11:58.718Z,29.30
2017-08-17T12:14:25.624Z,28.60
2017-08-17T12:16:51.801Z,28.60
2017-08-17T12:19:17.982Z,28.50
2017-08-17T12:21:44.143Z,28.60
2017-08-17T12:24:10.303Z,29.30
2017-08-17T12:26:36.498Z,29.90
2017-08-17T12:29:02.658Z,30.60
2017-08-17T12:31:28.842Z,31.10
2017-08-17T12:33:55.266Z,31.00
2017-08-17T12:36:21.437Z,30.20
2017-08-17T12:38:47.600Z,30.30
2017-08-17T12:41:14.567Z,30.60
2017-08-17T12:43:41.395Z,30.50
2017-08-17T12:46:08.324Z,30.60
2017-08-17T12:48:35.216Z,30.00
2017-08-17T12:51:01.800Z,30.10
2017-08-17T12:53:28.015Z,30.80
2017-08-17T12:55:54.230Z,30.80
2017-08-17T12:58:20.445Z,31.20
2017-08-17T13:00:48.671Z,31.10
2017-08-17T13:03:15.616Z,31.00
2017-08-17T13:05:42.555Z,30.00
2017-08-17T13:08:08.710Z,30.00
2017-08-17T13:10:37.161Z,28.70
2017-08-17T13:13:04.090Z,28.70
2017-08-17T13:15:30.333Z,28.70
2017-08-17T13:17:56.557Z,28.70
2017-08-17T13:20:22.760Z,29.20
2017-08-17T13:22:49.024Z,29.70
2017-08-17T13:25:15.232Z,30.20
2017-08-17T13:27:41.452Z,30.30
2017-08-17T13:30:07.852Z,30.10
2017-08-17T13:32:34.211Z,30.40
2017-08-17T13:35:00.441Z,30.40
2017-08-17T13:37:26.617Z,30.00
2017-08-17T13:39:53.511Z,30.00
2017-08-17T13:42:19.682Z,30.00
2017-08-17T13:44:46.635Z,30.20
2017-08-17T13:47:13.210Z,30.00
2017-08-17T13:49:39.436Z,29.50
2017-08-17T13:52:06.021Z,29.00
2017-08-17T13:54:32.185Z,29.00
2017-08-17T13:56:58.429Z,28.50
2017-08-17T13:59:24.618Z,28.00
2017-08-17T14:01:51.523Z,27.90
2017-08-17T14:04:17.695Z,27.90
2017-08-17T14:06:44.614Z,27.60
2017-08-17T14:09:10.799Z,27.50
2017-08-17T14:11:36.986Z,27.40
2017-08-17T14:14:03.168Z,27.30
2017-08-17T14:16:29.364Z,27.10
2017-08-17T14:18:56.306Z,26.80
2017-08-17T14:21:23.234Z,26.70
2017-08-17T14:23:50.131Z,26.50
2017-08-17T14:26:16.433Z,26.50
2017-08-17T14:28:42.613Z,26.40
2017-08-17T14:31:08.801Z,26.30
2017-08-17T14:33:35.939Z,26.20
2017-08-17T14:36:02.092Z,26.10
2017-08-17T14:38:28.292Z,26.20
2017-08-17T14:40:55.190Z,26.10
2017-08-17T14:43:21.495Z,26.20
2017-08-17T14:45:47.814Z,26.10
2017-08-17T14:48:14.120Z,26.10
2017-08-17T14:50:41.070Z,26.00
2017-08-17T14:53:08.045Z,26.10
2017-08-17T14:55:34.275Z,26.10
2017-08-17T14:58:00.425Z,26.10
2017-08-17T15:00:27.275Z,26.10
2017-08-17T15:02:53.486Z,26.10
2017-08-17T15:05:19.745Z,26.10
2017-08-17T15:07:47.128Z,26.10
2017-08-17T15:10:16.406Z,26.10
2017-08-17T15:12:42.661Z,26.00
2017-08-17T15:15:09.967Z,25.90
2017-08-17T15:17:36.201Z,25.90
2017-08-17T15:20:02.401Z,25.80
2017-08-17T15:22:29.475Z,25.70
2017-08-17T15:24:55.711Z,25.60
2017-08-17T15:27:21.904Z,25.60
2017-08-17T15:29:48.136Z,25.50
2017-08-17T15:32:14.583Z,25.50
2017-08-17T15:34:41.123Z,25.50
2017-08-17T15:37:07.277Z,25.40
2017-08-17T15:39:33.463Z,25.40
2017-08-17T15:41:59.610Z,25.40
2017-08-17T15:44:26.725Z,25.40
2017-08-17T15:46:52.921Z,25.30
2017-08-17T15:49:19.819Z,25.30
2017-08-17T15:51:46.002Z,25.20
2017-08-17T15:54:13.804Z,25.20
2017-08-17T15:56:39.986Z,25.20
2017-08-17T15:59:13.641Z,25.20
2017-08-17T16:01:39.888Z,25.10
2017-08-17T16:04:06.062Z,25.10
2017-08-17T16:06:33.034Z,25.00
2017-08-17T16:08:59.232Z,25.00
2017-08-17T16:11:26.141Z,25.10
2017-08-17T16:13:52.314Z,25.00
2017-08-17T16:16:18.541Z,25.10
2017-08-17T16:18:45.466Z,25.00
2017-08-17T16:21:11.703Z,25.00
2017-08-17T16:23:37.863Z,25.00
2017-08-17T16:26:04.054Z,25.00
2017-08-17T16:28:30.961Z,25.00
2017-08-17T16:30:57.133Z,25.00
2017-08-17T16:33:24.070Z,25.00
2017-08-17T16:35:50.242Z,24.90
2017-08-17T16:38:17.160Z,24.90
2017-08-17T16:40:43.313Z,24.80
2017-08-17T16:43:09.509Z,24.80
2017-08-17T16:45:36.392Z,24.70
2017-08-17T16:48:02.619Z,24.70
2017-08-17T16:50:28.850Z,24.70
2017-08-17T16:52:55.416Z,24.70
2017-08-17T16:55:26.777Z,24.60
2017-08-17T16:57:56.951Z,24.60
2017-08-17T17:00:23.154Z,24.60
2017-08-17T17:02:50.307Z,24.60
2017-08-17T17:05:17.292Z,24.70
2017-08-17T17:07:43.480Z,24.70
2017-08-17T17:10:10.403Z,24.70
2017-08-17T17:12:36.627Z,24.60
2017-08-17T17:15:02.819Z,24.60
2017-08-17T17:17:29.051Z,24.50
2017-08-17T17:19:55.269Z,24.20
2017-08-17T17:22:21.443Z,24.40
2017-08-17T17:24:47.592Z,24.40
2017-08-17T17:27:14.526Z,24.40
2017-08-17T17:29:40.719Z,24.30
2017-08-17T17:32:06.886Z,24.30
2017-08-17T17:34:33.833Z,24.30
2017-08-17T17:37:00.757Z,24.30
2017-08-17T17:39:27.998Z,24.20
2017-08-17T17:41:54.139Z,24.20
2017-08-17T17:44:20.352Z,24.20
2017-08-17T17:46:46.891Z,24.10
2017-08-17T17:49:13.066Z,24.10
2017-08-17T17:51:40.767Z,24.10
2017-08-17T18:03:57.775Z,24.10
2017-08-17T18:06:23.965Z,24.00
2017-08-17T18:08:50.181Z,23.90
2017-08-17T18:11:16.346Z,24.10
2017-08-17T18:13:42.607Z,24.10
2017-08-17T18:16:08.835Z,24.00
2017-08-17T18:18:35.039Z,24.00
2017-08-17T18:21:01.244Z,23.90
2017-08-17T18:23:27.425Z,23.90
2017-08-17T18:25:54.358Z,23.90
2017-08-17T18:28:20.559Z,23.90
2017-08-17T18:30:46.730Z,23.90
2017-08-17T18:33:13.638Z,24.00
2017-08-17T18:35:39.818Z,23.90
2017-08-17T18:38:06.738Z,23.90
2017-08-17T18:40:32.957Z,23.90
2017-08-17T18:42:59.163Z,23.80
2017-08-17T18:45:25.506Z,23.80
2017-08-17T18:47:51.745Z,23.80
2017-08-17T18:50:18.742Z,23.70
2017-08-17T18:52:44.926Z,23.70
2017-08-17T18:55:11.126Z,23.70
2017-08-17T18:57:37.312Z,23.70
2017-08-17T19:00:05.173Z,23.70
2017-08-17T19:02:32.111Z,23.60
2017-08-17T19:04:59.023Z,23.60
2017-08-17T19:07:25.239Z,23.60
2017-08-17T19:09:51.485Z,23.60
2017-08-17T19:12:17.673Z,23.60
2017-08-17T19:14:45.042Z,23.60
2017-08-17T19:17:11.290Z,23.60
2017-08-17T19:19:37.506Z,23.60
2017-08-17T19:22:03.700Z,23.60
2017-08-17T19:24:31.596Z,23.60
2017-08-17T19:26:57.786Z,23.60
2017-08-17T19:29:25.453Z,23.60
2017-08-17T19:31:52.404Z,23.70
2017-08-17T19:34:19.977Z,23.60
2017-08-17T19:36:46.250Z,23.60
2017-08-17T19:39:18.815Z,23.50
2017-08-17T19:41:45.046Z,23.50
2017-08-17T19:44:11.238Z,23.50
2017-08-17T19:46:37.469Z,23.60
2017-08-17T19:49:03.665Z,23.60
2017-08-17T19:52:14.152Z,23.40
2017-08-17T19:54:41.085Z,23.40
2017-08-17T19:57:08.383Z,23.40
2017-08-17T19:59:34.583Z,23.40
2017-08-17T20:02:00.817Z,23.40
2017-08-17T20:04:27.007Z,23.40
2017-08-17T20:06:53.183Z,23.40
2017-08-17T20:09:19.383Z,23.20
2017-08-17T20:11:46.336Z,23.00
2017-08-17T20:14:14.306Z,22.90
2017-08-17T20:16:40.510Z,22.90
2017-08-17T20:19:06.750Z,22.90
2017-08-17T20:21:32.965Z,22.80
2017-08-17T20:23:59.166Z,22.80
2017-08-17T20:26:25.489Z,22.80
2017-08-17T20:28:51.725Z,22.80
2017-08-17T20:31:18.055Z,22.80
2017-08-17T20:33:44.232Z,22.80
2017-08-17T20:36:11.203Z,22.80
2017-08-17T20:38:37.405Z,22.80
2017-08-17T20:41:03.583Z,22.80
2017-08-17T20:43:29.829Z,22.80
2017-08-17T20:45:56.709Z,22.70
2017-08-17T20:48:23.754Z,22.60
2017-08-17T20:50:50.670Z,22.60
2017-08-17T20:53:16.953Z,22.50
2017-08-17T20:55:43.138Z,22.50
2017-08-17T20:58:09.704Z,22.60
2017-08-17T21:00:37.366Z,22.60
2017-08-17T21:03:05.015Z,22.60
2017-08-17T21:07:59.923Z,22.50
2017-08-17T21:10:26.106Z,22.50
2017-08-17T21:12:52.299Z,22.50
2017-08-17T21:15:19.611Z,22.50
2017-08-17T21:17:45.785Z,22.50
2017-08-17T21:20:12.710Z,22.50
2017-08-17T21:22:38.894Z,22.50
2017-08-17T21:25:05.506Z,22.40
2017-08-17T21:27:31.723Z,22.30
2017-08-17T21:29:58.693Z,22.30
2017-08-17T21:32:24.888Z,22.30
2017-08-17T21:34:52.706Z,22.20
2017-08-17T21:37:18.867Z,22.20
2017-08-17T21:39:45.421Z,22.10
2017-08-17T21:42:12.379Z,22.10
2017-08-17T21:44:39.337Z,22.10
2017-08-17T21:47:05.518Z,22.10
2017-08-17T21:49:31.707Z,22.00
2017-08-17T21:51:57.942Z,22.00
2017-08-17T21:54:24.150Z,22.00
2017-08-17T21:56:50.316Z,22.00
2017-08-17T21:59:16.522Z,22.00
2017-08-17T22:01:42.716Z,21.90
2017-08-17T22:04:09.648Z,21.90
2017-08-17T22:06:35.871Z,21.80
2017-08-17T22:09:02.122Z,21.80
2017-08-17T22:11:29.108Z,21.80
2017-08-17T22:13:55.275Z,21.80
2017-08-17T22:16:21.865Z,21.80
2017-08-17T22:18:48.910Z,21.80
2017-08-17T22:21:15.970Z,21.80
2017-08-17T22:23:42.397Z,21.70
2017-08-17T22:26:08.614Z,21.70
2017-08-17T22:28:34.769Z,21.70
2017-08-17T22:31:02.656Z,21.70
2017-08-17T22:33:28.859Z,21.50
2017-08-17T22:35:55.030Z,21.70
2017-08-17T22:38:21.191Z,21.60
2017-08-17T22:40:47.424Z,21.50
2017-08-17T22:43:13.619Z,21.50
2017-08-17T22:45:40.591Z,21.50
2017-08-17T22:48:07.499Z,21.40
2017-08-17T22:50:33.670Z,21.30
2017-08-17T22:52:59.836Z,21.30
2017-08-17T22:55:26.023Z,21.20
2017-08-17T22:57:52.223Z,21.20
2017-08-17T23:00:19.932Z,21.20
2017-08-17T23:02:46.131Z,21.30
2017-08-17T23:05:12.681Z,21.30
2017-08-17T23:07:38.854Z,21.30
2017-08-17T23:10:05.405Z,21.20
2017-08-17T23:12:31.575Z,21.20
2017-08-17T23:14:57.740Z,21.20
2017-08-17T23:17:23.921Z,21.10
2017-08-17T23:19:50.095Z,21.20
2017-08-17T23:22:17.072Z,21.00
2017-08-17T23:24:43.983Z,20.90
2017-08-17T23:27:10.147Z,20.90
2017-08-17T23:29:37.088Z,20.90
2017-08-17T23:32:03.259Z,20.90
2017-08-17T23:34:29.411Z,21.00
2017-08-17T23:36:55.593Z,21.00
2017-08-17T23:39:21.756Z,20.90
2017-08-17T23:41:47.925Z,20.90
2017-08-17T23:44:14.092Z,21.00
2017-08-17T23:46:40.244Z,20.90
2017-08-17T23:49:06.392Z,20.90
2017-08-17T23:51:32.534Z,20.90
2017-08-17T23:53:58.697Z,20.90
2017-08-17T23:56:24.904Z,20.90
2017-08-17T23:58:51.797Z,20.90
